Time;durP1;ratioP1;P1;durP2;ratioP2;P2;SDS_P1;SDS_P2;PMS_P1;PMS_P2;Temp;Humidity;BMP_temperature;BMP_pressure;BME280_temperature;BME280_humidity;BME280_pressure;Samples;Min_cycle;Max_cycle;Signal;HPM_P1;HPM_P2
2022/01/04 00:01:20;;;;;;;7.90;4.22;;;;;;;6.13;75.33;97666.28;5107961;28;20551;-66
2022/01/04 00:03:47;;;;;;;9.88;5.50;;;;;;;6.13;75.48;97660.00;5108405;28;20626;-66
2022/01/04 00:06:12;;;;;;;9.40;4.70;;;;;;;6.11;76.64;97673.91;5110524;28;20028;-66
2022/01/04 00:08:38;;;;;;;9.35;5.43;;;;;;;6.07;75.79;97664.69;5111940;28;20455;-66
2022/01/04 00:11:30;;;;;;;11.02;5.15;;;;;;;6.01;76.46;97660.41;5112572;28;20027;-66
2022/01/04 00:13:56;;;;;;;10.98;5.78;;;;;;;5.96;76.56;97659.31;5112451;28;20028;-65
2022/01/04 00:16:21;;;;;;;9.73;4.80;;;;;;;5.93;76.56;97649.00;5112768;28;20027;-66
2022/01/04 00:18:47;;;;;;;16.02;8.15;;;;;;;5.92;76.58;97647.38;5111953;28;20122;-66
2022/01/04 00:21:12;;;;;;;12.02;6.15;;;;;;;5.94;77.09;97644.38;5112368;28;20023;-65
2022/01/04 00:23:38;;;;;;;11.40;5.25;;;;;;;5.93;76.96;97645.47;5112327;28;20015;-66
2022/01/04 00:26:04;;;;;;;12.88;6.32;;;;;;;5.91;76.62;97653.91;5112469;28;20024;-67
2022/01/04 00:28:30;;;;;;;13.57;8.02;;;;;;;5.89;77.24;97637.09;5111088;28;20023;-66
2022/01/04 00:30:55;;;;;;;16.38;7.68;;;;;;;5.88;77.71;97643.63;5111926;28;20057;-66
2022/01/04 00:33:22;;;;;;;10.40;6.10;;;;;;;5.84;78.08;97641.75;5112182;27;20047;-66
2022/01/04 00:35:47;;;;;;;12.70;6.47;;;;;;;5.79;77.60;97632.50;5113280;27;20039;-66
2022/01/04 00:38:14;;;;;;;14.23;5.80;;;;;;;5.77;78.19;97637.44;5112562;28;20062;-65
2022/01/04 00:40:39;;;;;;;13.45;7.40;;;;;;;5.74;77.94;97634.47;5113091;28;20433;-66
2022/01/04 00:43:05;;;;;;;9.88;5.28;;;;;;;5.71;78.00;97633.13;5113378;28;20019;-65
2022/01/04 00:45:33;;;;;;;9.13;4.78;;;;;;;5.70;78.04;97636.13;5113053;28;20061;-66
2022/01/04 00:50:25;;;;;;;8.60;4.40;;;;;;;5.65;78.75;97640.53;5112435;28;20024;-66
2022/01/04 00:52:51;;;;;;;10.02;4.18;;;;;;;5.62;79.76;97643.81;5093492;28;20031;-65
2022/01/04 00:55:18;;;;;;;9.20;4.75;;;;;;;5.58;78.76;97642.75;5112810;28;20464;-66
2022/01/04 00:57:43;;;;;;;10.63;5.15;;;;;;;5.60;79.66;97650.63;5112274;28;20122;-66
2022/01/04 01:00:11;;;;;;;7.93;4.07;;;;;;;5.59;79.92;97641.66;5111994;28;20488;-65
2022/01/04 01:02:36;;;;;;;11.60;4.65;;;;;;;5.56;79.76;97639.50;5111588;28;20472;-66
2022/01/04 01:05:03;;;;;;;9.27;4.88;;;;;;;5.52;80.69;97635.72;5112507;28;20027;-65
2022/01/04 01:07:28;;;;;;;11.57;5.40;;;;;;;5.49;80.47;97634.38;5112323;28;20067;-66
2022/01/04 01:12:38;;;;;;;9.77;4.43;;;;;;;5.48;80.28;97624.59;5112692;28;20031;-66
2022/01/04 01:15:04;;;;;;;10.68;4.68;;;;;;;5.48;79.84;97611.00;5112771;28;20024;-66
2022/01/04 01:17:30;;;;;;;11.15;6.03;;;;;;;5.50;80.36;97608.81;5110718;28;20028;-66
2022/01/04 01:19:57;;;;;;;9.55;4.25;;;;;;;5.54;79.93;97606.34;5111839;28;20055;-66
2022/01/04 01:22:23;;;;;;;9.70;5.40;;;;;;;5.59;80.14;97600.06;5107356;28;20035;-66
2022/01/04 01:24:49;;;;;;;12.50;7.65;;;;;;;5.62;80.33;97597.56;5112731;28;20032;-67
2022/01/04 01:27:14;;;;;;;11.70;7.55;;;;;;;5.62;79.82;97589.41;5112797;28;20050;-67
2022/01/04 01:29:40;;;;;;;11.93;5.20;;;;;;;5.66;80.04;97582.28;5111775;28;20403;-67
2022/01/04 01:32:06;;;;;;;7.93;3.83;;;;;;;5.69;79.89;97585.53;5112531;28;20028;-66
2022/01/04 01:34:31;;;;;;;9.68;5.35;;;;;;;5.72;79.67;97579.53;5094241;28;20030;-66
2022/01/04 01:36:57;;;;;;;9.15;4.05;;;;;;;5.72;79.72;97582.25;5112706;28;20031;-66
2022/01/04 01:39:22;;;;;;;8.90;3.70;;;;;;;5.71;79.88;97567.03;5094178;28;20394;-66
2022/01/04 01:41:48;;;;;;;5.97;3.25;;;;;;;5.71;79.79;97576.00;5112218;28;20027;-66
2022/01/04 01:44:13;;;;;;;8.45;3.67;;;;;;;5.70;79.81;97559.97;5109564;28;20048;-66
2022/01/04 01:46:38;;;;;;;5.65;3.40;;;;;;;5.71;79.50;97567.03;5111263;28;20405;-66
2022/01/04 01:49:04;;;;;;;6.75;3.70;;;;;;;5.68;80.58;97563.00;5110794;28;20388;-66
2022/01/04 01:51:30;;;;;;;5.75;3.67;;;;;;;5.65;80.30;97556.19;5110754;28;20053;-66
2022/01/04 01:53:56;;;;;;;5.38;3.53;;;;;;;5.65;80.11;97558.13;5109278;28;20106;-65
2022/01/04 01:56:22;;;;;;;6.35;4.05;;;;;;;5.64;80.66;97546.41;5110242;28;20153;-66
2022/01/04 01:58:47;;;;;;;6.63;3.85;;;;;;;5.63;79.98;97536.63;5095394;28;20035;-66
2022/01/04 02:01:13;;;;;;;10.02;5.90;;;;;;;5.64;80.08;97535.53;5107706;28;20028;-65
2022/01/04 02:03:39;;;;;;;9.40;5.32;;;;;;;5.64;80.41;97534.72;5111429;28;20426;-66
2022/01/04 02:06:05;;;;;;;6.10;3.78;;;;;;;5.63;80.34;97533.91;5111158;27;20034;-66
2022/01/04 02:08:31;;;;;;;8.73;5.38;;;;;;;5.62;80.68;97528.75;5111136;28;20043;-66
2022/01/04 02:10:58;;;;;;;11.15;5.22;;;;;;;5.63;80.38;97519.50;5107968;28;20399;-66
2022/01/04 02:13:24;;;;;;;6.28;3.95;;;;;;;5.64;80.59;97529.28;5111032;28;20027;-66
2022/01/04 02:15:51;;;;;;;10.07;5.43;;;;;;;5.62;80.70;97510.50;5111550;28;20097;-66
2022/01/04 02:18:17;;;;;;;9.70;5.20;;;;;;;5.64;80.47;97507.53;5110694;28;20036;-66
2022/01/04 02:20:43;;;;;;;10.13;5.40;;;;;;;5.64;80.42;97507.53;5110798;28;20077;-66
2022/01/04 02:23:08;;;;;;;12.05;6.95;;;;;;;5.64;80.68;97508.31;5111042;28;20019;-66
2022/01/04 02:25:34;;;;;;;14.20;5.85;;;;;;;5.66;80.46;97508.06;5091692;28;20038;-66
2022/01/04 02:28:00;;;;;;;8.00;5.05;;;;;;;5.65;80.30;97503.72;5109660;28;20031;-67
2022/01/04 02:30:25;;;;;;;8.55;4.80;;;;;;;5.65;80.04;97501.00;5110782;28;20648;-66
2022/01/04 02:32:51;;;;;;;8.20;5.35;;;;;;;5.66;80.23;97500.69;5110672;28;20054;-67
2022/01/04 02:35:22;;;;;;;7.18;4.15;;;;;;;5.66;80.06;97497.97;5092545;28;20019;-66
2022/01/04 02:37:47;;;;;;;8.32;5.43;;;;;;;5.64;80.31;97489.28;5090483;28;20387;-66
2022/01/04 02:40:13;;;;;;;12.68;6.72;;;;;;;5.67;80.29;97496.06;5108859;28;20015;-67
2022/01/04 02:42:39;;;;;;;10.90;5.10;;;;;;;5.70;80.45;97494.66;5110407;28;20470;-67
2022/01/04 02:45:05;;;;;;;10.05;6.88;;;;;;;5.71;80.48;97482.69;5109687;28;20820;-67
2022/01/04 02:47:31;;;;;;;9.35;6.28;;;;;;;5.70;80.54;97473.72;5110061;28;20472;-66
2022/01/04 02:49:56;;;;;;;11.30;5.80;;;;;;;5.68;80.35;97473.22;5091177;28;20031;-67
2022/01/04 02:52:22;;;;;;;7.82;4.70;;;;;;;5.66;80.10;97468.03;5107937;28;20084;-66
2022/01/04 02:54:47;;;;;;;12.20;6.57;;;;;;;5.65;80.39;97465.63;5109371;28;20022;-67
2022/01/04 02:57:13;;;;;;;8.68;5.22;;;;;;;5.68;80.88;97461.50;5110586;28;20038;-67
2022/01/04 02:59:38;;;;;;;8.70;4.95;;;;;;;5.68;80.86;97459.59;5110186;28;20104;-66
2022/01/04 03:02:04;;;;;;;7.50;4.70;;;;;;;5.71;81.36;97447.31;5109224;28;20038;-67
2022/01/04 03:04:29;;;;;;;10.48;5.50;;;;;;;5.72;81.23;97438.84;5108109;28;20114;-67
2022/01/04 03:06:55;;;;;;;9.05;5.63;;;;;;;5.73;80.93;97445.13;5109941;28;20046;-66
2022/01/04 03:09:20;;;;;;;8.15;5.60;;;;;;;5.74;80.93;97442.09;5091358;28;20088;-66
2022/01/04 03:11:46;;;;;;;6.40;4.45;;;;;;;5.78;80.90;97442.34;5109862;28;20269;-68
2022/01/04 03:14:11;;;;;;;6.50;4.00;;;;;;;5.78;81.08;97432.25;5110624;28;20055;-67
2022/01/04 03:16:37;;;;;;;8.38;5.70;;;;;;;5.79;81.07;97430.38;5107894;28;20039;-68
2022/01/04 03:19:06;;;;;;;7.18;5.15;;;;;;;5.80;81.36;97430.06;5109878;28;20039;-66
2022/01/04 03:21:39;;;;;;;8.43;4.78;;;;;;;5.79;80.80;97416.75;5091331;28;20450;-66
2022/01/04 03:24:07;;;;;;;7.95;5.07;;;;;;;5.84;81.05;97413.97;5109711;28;20085;-66
2022/01/04 03:26:33;;;;;;;9.30;4.88;;;;;;;5.85;81.13;97407.44;5109346;28;20043;-66
2022/01/04 03:29:00;;;;;;;9.15;5.53;;;;;;;5.88;81.17;97404.13;5109544;28;20054;-66
2022/01/04 03:31:26;;;;;;;9.32;5.60;;;;;;;5.93;81.20;97408.69;5089460;28;20016;-66
2022/01/04 03:33:52;;;;;;;8.80;4.55;;;;;;;5.97;81.31;97401.56;5109249;28;20050;-66
2022/01/04 03:36:20;;;;;;;6.57;4.57;;;;;;;5.98;81.75;97386.84;5108524;28;20455;-66
2022/01/04 03:38:48;;;;;;;7.93;4.30;;;;;;;5.96;81.03;97389.06;5107430;28;20122;-66
2022/01/04 03:41:15;;;;;;;5.32;3.63;;;;;;;5.99;80.97;97388.47;5107526;28;20487;-66
2022/01/04 03:43:40;;;;;;;7.97;4.15;;;;;;;5.99;80.90;97369.44;5110046;28;20540;-66
2022/01/04 03:46:06;;;;;;;7.05;4.13;;;;;;;5.99;80.66;97369.44;5110395;28;20036;-66
2022/01/04 03:48:32;;;;;;;7.05;4.80;;;;;;;5.98;80.84;97373.25;5089719;28;20039;-66
2022/01/04 03:50:57;;;;;;;10.25;6.55;;;;;;;5.96;81.22;97362.66;5090051;28;20066;-65
2022/01/04 03:53:23;;;;;;;9.75;7.05;;;;;;;5.95;81.09;97358.31;5108903;28;20081;-67
2022/01/04 03:55:48;;;;;;;9.95;5.35;;;;;;;5.94;81.14;97355.88;5109128;28;20024;-66
2022/01/04 03:58:13;;;;;;;10.25;5.43;;;;;;;5.93;81.08;97355.06;5111617;28;20074;-66
2022/01/04 04:00:39;;;;;;;17.17;10.45;;;;;;;5.92;81.10;97358.09;5108143;28;20056;-67
2022/01/04 04:03:04;;;;;;;11.57;7.75;;;;;;;5.92;81.05;97353.44;5107766;28;20028;-66
2022/01/04 04:05:30;;;;;;;13.82;8.07;;;;;;;5.93;81.51;97355.06;5109376;28;20024;-66
2022/01/04 04:07:55;;;;;;;11.13;7.20;;;;;;;5.93;81.07;97355.06;5107056;28;20556;-66
2022/01/04 04:10:20;;;;;;;13.40;8.52;;;;;;;5.92;81.13;97348.00;5107811;28;20039;-66
2022/01/04 04:12:46;;;;;;;12.25;7.82;;;;;;;5.93;81.34;97343.38;5108929;28;20399;-66
2022/01/04 04:15:11;;;;;;;11.13;7.30;;;;;;;5.94;81.62;97343.06;5110483;28;20106;-66
2022/01/04 04:17:38;;;;;;;10.68;7.70;;;;;;;5.94;81.96;97353.16;5103910;28;20032;-66
2022/01/04 04:20:04;;;;;;;12.55;7.18;;;;;;;5.92;81.94;97342.56;5107419;28;20067;-67
2022/01/04 04:22:31;;;;;;;11.90;6.78;;;;;;;5.92;81.67;97339.03;5105888;28;20039;-66
2022/01/04 04:24:56;;;;;;;12.57;7.15;;;;;;;5.91;81.77;97343.66;5105745;28;20093;-67
2022/01/04 04:27:22;;;;;;;11.27;6.57;;;;;;;5.94;82.07;97334.13;5107311;28;20092;-66
2022/01/04 04:29:47;;;;;;;10.48;5.85;;;;;;;5.95;81.96;97333.81;5109037;28;20039;-66
2022/01/04 04:32:12;;;;;;;15.50;7.25;;;;;;;5.95;81.79;97325.66;5087017;28;20028;-67
2022/01/04 04:34:38;;;;;;;9.88;5.40;;;;;;;5.96;82.13;97329.97;5086192;28;20539;-66
2022/01/04 04:37:04;;;;;;;10.32;5.60;;;;;;;5.97;82.00;97326.16;5107943;28;20024;-66
2022/01/04 04:39:29;;;;;;;7.70;5.03;;;;;;;6.00;82.25;97321.22;5088138;28;20794;-66
2022/01/04 04:41:55;;;;;;;11.40;8.02;;;;;;;6.03;81.72;97315.22;5107725;28;20395;-67
2022/01/04 04:44:21;;;;;;;12.18;7.10;;;;;;;6.04;82.09;97317.69;5088647;28;20110;-66
2022/01/04 04:46:47;;;;;;;9.55;5.75;;;;;;;6.07;82.29;97322.53;5089757;28;20107;-67
2022/01/04 04:49:13;;;;;;;9.40;5.43;;;;;;;6.08;82.10;97329.59;5108225;28;20024;-66
2022/01/04 04:51:38;;;;;;;11.60;6.60;;;;;;;6.07;82.36;97314.38;5110721;28;20030;-66
2022/01/04 04:54:04;;;;;;;5.68;3.85;;;;;;;6.08;81.95;97320.59;5111501;28;20072;-67
2022/01/04 04:56:30;;;;;;;6.22;3.30;;;;;;;6.08;82.46;97310.53;5112724;28;21770;-66
2022/01/04 04:58:55;;;;;;;6.93;3.72;;;;;;;6.09;82.20;97306.72;5111492;28;20039;-66
2022/01/04 05:01:21;;;;;;;7.05;4.13;;;;;;;6.10;81.93;97302.06;5095717;28;20070;-66
2022/01/04 05:03:46;;;;;;;8.45;3.80;;;;;;;6.10;82.25;97297.44;5092808;28;20035;-66
2022/01/04 05:06:12;;;;;;;8.20;4.80;;;;;;;6.11;82.35;97296.31;5112862;28;20031;-67
2022/01/04 05:08:37;;;;;;;6.57;4.30;;;;;;;6.11;81.99;97296.31;5112241;28;20047;-66
2022/01/04 05:11:03;;;;;;;9.38;4.32;;;;;;;6.10;81.80;97297.44;5112390;28;20039;-66
2022/01/04 05:13:30;;;;;;;7.10;4.13;;;;;;;6.10;82.20;97285.72;5111723;28;20089;-66
2022/01/04 05:15:55;;;;;;;10.52;3.67;;;;;;;6.08;82.32;97288.75;5112939;27;20028;-66
2022/01/04 05:18:21;;;;;;;6.30;4.13;;;;;;;6.09;82.19;97290.38;5111231;28;20077;-66
2022/01/04 05:20:46;;;;;;;7.85;4.22;;;;;;;6.10;82.00;97291.19;5111836;28;20042;-66
2022/01/04 05:23:12;;;;;;;9.70;4.45;;;;;;;6.09;82.06;97295.84;5114260;27;20115;-66
2022/01/04 05:25:38;;;;;;;8.32;3.90;;;;;;;6.11;82.21;97287.34;5113729;27;20103;-66
2022/01/04 05:28:03;;;;;;;6.13;3.40;;;;;;;6.11;81.85;97281.91;5112838;27;20114;-66
2022/01/04 05:30:29;;;;;;;6.78;3.75;;;;;;;6.10;81.87;97272.94;5095643;28;20019;-66
2022/01/04 05:32:54;;;;;;;9.57;4.32;;;;;;;6.10;82.17;97274.84;5112786;28;20062;-66
2022/01/04 05:35:20;;;;;;;9.32;5.40;;;;;;;6.09;81.69;97274.06;5112883;27;20047;-67
2022/01/04 05:37:45;;;;;;;11.68;4.28;;;;;;;6.11;82.19;97269.09;5099229;27;20774;-67
2022/01/04 05:40:11;;;;;;;8.02;4.75;;;;;;;6.12;82.33;97272.63;5113794;27;20028;-67
2022/01/04 05:42:36;;;;;;;10.82;6.00;;;;;;;6.11;81.93;97263.66;5114562;27;20543;-66
2022/01/04 05:45:02;;;;;;;11.88;6.30;;;;;;;6.11;82.13;97263.66;5113121;27;20465;-66
2022/01/04 05:47:27;;;;;;;24.35;10.15;;;;;;;6.13;81.92;97259.81;5094278;28;20039;-66
2022/01/04 05:49:53;;;;;;;11.02;5.40;;;;;;;6.13;82.30;97255.19;5113372;27;20460;-66
2022/01/04 05:52:18;;;;;;;13.65;8.23;;;;;;;6.12;81.85;97253.59;5112463;28;20043;-66
2022/01/04 05:54:46;;;;;;;10.48;4.20;;;;;;;6.14;82.28;97248.66;5112553;27;20031;-66
2022/01/04 05:57:11;;;;;;;17.30;9.07;;;;;;;6.14;82.52;97250.56;5093329;28;20031;-66
2022/01/04 05:59:37;;;;;;;10.55;5.72;;;;;;;6.14;82.44;97254.09;5114933;27;20042;-66
2022/01/04 06:02:03;;;;;;;14.18;7.50;;;;;;;6.15;82.33;97246.72;5097556;28;20112;-66
2022/01/04 06:04:28;;;;;;;14.13;7.50;;;;;;;6.15;82.52;97254.88;5110513;28;20031;-66
2022/01/04 06:06:54;;;;;;;21.05;8.75;;;;;;;6.10;82.25;97245.72;5111247;28;20471;-66
2022/01/04 06:09:25;;;;;;;20.38;9.57;;;;;;;6.10;82.63;97245.72;5093182;28;20067;-66
2022/01/04 06:17:03;;;;;;;15.88;8.00;;;;;;;6.07;82.83;97231.88;5111408;28;20043;-66
2022/01/04 06:19:28;;;;;;;11.73;6.43;;;;;;;6.06;82.59;97219.38;5092985;28;20369;-66
2022/01/04 06:21:54;;;;;;;20.35;9.52;;;;;;;6.08;82.49;97219.88;5109270;28;20042;-66
2022/01/04 06:24:19;;;;;;;18.65;7.93;;;;;;;6.09;82.87;97218.78;5110867;27;20112;-66
2022/01/04 06:26:44;;;;;;;24.73;10.27;;;;;;;6.08;82.78;97218.00;5110998;27;20016;-66
2022/01/04 06:29:11;;;;;;;17.65;6.82;;;;;;;6.09;82.95;97214.16;5092277;28;20027;-66
2022/01/04 06:31:40;;;;;;;12.68;6.18;;;;;;;6.11;82.55;97211.13;5111659;27;20531;-65
2022/01/04 06:34:05;;;;;;;19.05;8.80;;;;;;;6.09;82.76;97216.88;5110330;27;20038;-66
2022/01/04 06:36:31;;;;;;;31.30;12.60;;;;;;;6.10;82.68;97218.50;5112213;27;20019;-66
2022/01/04 06:38:56;;;;;;;16.42;6.45;;;;;;;6.08;83.02;97214.44;5110854;28;20120;-66
2022/01/04 06:41:22;;;;;;;21.85;8.38;;;;;;;6.08;83.08;97209.00;5094119;28;20153;-66
2022/01/04 06:43:47;;;;;;;15.10;6.43;;;;;;;6.09;82.91;97211.44;5112546;27;20467;-66
2022/01/04 06:46:13;;;;;;;23.92;10.05;;;;;;;6.11;82.69;97201.03;5091894;28;20103;-66
2022/01/04 06:48:40;;;;;;;20.80;10.57;;;;;;;6.12;83.09;97193.69;5109889;28;20395;-66
2022/01/04 06:51:06;;;;;;;29.02;10.35;;;;;;;6.13;82.41;97192.59;5111395;27;20833;-66
2022/01/04 06:53:32;;;;;;;19.17;8.45;;;;;;;6.15;83.21;97195.00;5110621;27;20156;-66
2022/01/04 06:55:58;;;;;;;16.73;8.18;;;;;;;6.14;82.76;97194.19;5110961;28;20034;-66
2022/01/04 06:58:23;;;;;;;22.88;9.65;;;;;;;6.16;83.34;97188.44;5110688;28;20483;-66
2022/01/04 07:00:48;;;;;;;15.05;6.70;;;;;;;6.19;82.63;97179.69;5107968;28;20482;-65
2022/01/04 07:03:14;;;;;;;16.00;8.15;;;;;;;6.24;82.71;97182.31;5110206;28;20024;-66
2022/01/04 07:05:39;;;;;;;15.02;7.82;;;;;;;6.29;83.14;97171.34;5108837;28;20016;-66
2022/01/04 07:08:05;;;;;;;12.95;6.05;;;;;;;6.29;82.43;97170.56;5107250;28;20051;-66
2022/01/04 07:10:30;;;;;;;11.73;6.10;;;;;;;6.27;82.43;97170.03;5111062;27;20032;-66
2022/01/04 07:12:56;;;;;;;10.95;6.15;;;;;;;6.29;82.94;97165.09;5110318;28;20023;-65
2022/01/04 07:15:21;;;;;;;12.70;6.40;;;;;;;6.27;82.70;97157.22;5110691;28;20480;-66
2022/01/04 07:17:47;;;;;;;12.35;6.88;;;;;;;6.27;82.65;97161.88;5110255;28;20027;-65
2022/01/04 07:20:12;;;;;;;13.70;7.22;;;;;;;6.24;82.76;97161.38;5110474;28;20073;-66
2022/01/04 07:22:38;;;;;;;13.75;6.40;;;;;;;6.24;82.18;97150.47;5111706;28;20543;-66
2022/01/04 07:25:04;;;;;;;11.30;8.60;;;;;;;6.25;82.66;97145.81;5111412;28;20028;-65
2022/01/04 07:27:30;;;;;;;10.20;6.00;;;;;;;6.29;83.12;97149.56;5108744;28;20111;-66
2022/01/04 07:29:56;;;;;;;14.15;7.30;;;;;;;6.30;82.56;97142.22;5111124;28;20468;-66
2022/01/04 07:32:21;;;;;;;18.67;10.43;;;;;;;6.31;82.35;97147.34;5111562;28;20081;-66
2022/01/04 07:34:46;;;;;;;17.88;9.38;;;;;;;6.35;82.54;97140.19;5111532;28;20372;-66
2022/01/04 07:37:13;;;;;;;15.30;8.65;;;;;;;6.36;82.55;97132.81;5112883;28;20024;-66
2022/01/04 07:39:39;;;;;;;16.92;10.32;;;;;;;6.38;83.15;97139.59;5112044;28;20380;-66
2022/01/04 07:42:04;;;;;;;16.80;11.75;;;;;;;6.38;82.44;97133.31;5113407;27;20076;-66
2022/01/04 07:44:30;;;;;;;20.95;12.63;;;;;;;6.39;82.66;97124.88;5111367;28;20023;-66
2022/01/04 07:46:55;;;;;;;22.30;13.77;;;;;;;6.38;82.79;97117.81;5094768;28;20019;-66
2022/01/04 07:49:21;;;;;;;15.98;10.00;;;;;;;6.41;82.69;97119.09;5110941;28;20514;-66
2022/01/04 07:51:47;;;;;;;27.92;18.38;;;;;;;6.43;82.74;97114.16;5111436;28;20039;-66
2022/01/04 07:54:12;;;;;;;23.55;14.82;;;;;;;6.45;82.58;97108.44;5111400;28;20023;-66
2022/01/04 07:56:38;;;;;;;20.00;10.48;;;;;;;6.45;82.79;97105.72;5111755;28;20572;-67
2022/01/04 07:59:04;;;;;;;22.23;15.10;;;;;;;6.48;83.01;97105.09;5110507;28;20430;-67
2022/01/04 08:01:31;;;;;;;21.83;15.75;;;;;;;6.51;82.81;97090.88;5110849;28;20035;-67
2022/01/04 08:03:57;;;;;;;20.00;12.27;;;;;;;6.51;82.59;97086.22;5112382;28;20061;-66
2022/01/04 08:06:23;;;;;;;21.02;15.40;;;;;;;6.55;82.73;97081.78;5111041;28;20032;-66
2022/01/04 08:08:49;;;;;;;17.45;12.95;;;;;;;6.55;82.44;97061.91;5112341;28;20093;-66
2022/01/04 08:11:15;;;;;;;19.38;12.90;;;;;;;6.57;82.78;97064.34;5110951;28;20525;-68
2022/01/04 08:13:40;;;;;;;17.38;11.93;;;;;;;6.58;82.50;97061.28;5111391;28;20016;-66
2022/01/04 08:16:05;;;;;;;19.33;12.48;;;;;;;6.63;82.55;97057.69;5110575;28;20051;-66
2022/01/04 08:18:31;;;;;;;24.65;17.05;;;;;;;6.66;82.64;97051.63;5113654;28;20027;-67
2022/01/04 08:20:58;;;;;;;23.00;12.98;;;;;;;6.70;82.39;97056.16;5110537;28;20027;-66
2022/01/04 08:23:27;;;;;;;21.55;15.30;;;;;;;6.72;82.42;97050.41;5114994;28;20046;-66
2022/01/04 08:25:53;;;;;;;16.30;9.98;;;;;;;6.72;82.44;97039.50;5115243;27;20036;-66
2022/01/04 08:28:18;;;;;;;18.13;11.40;;;;;;;6.75;82.29;97025.25;5121253;27;20524;-66
2022/01/04 08:30:44;;;;;;;17.45;10.45;;;;;;;6.75;82.17;97021.72;5117403;27;20031;-66
2022/01/04 08:33:10;;;;;;;13.10;7.03;;;;;;;6.79;82.28;97011.81;5122106;27;20107;-67
2022/01/04 08:35:37;;;;;;;11.43;5.95;;;;;;;6.83;82.38;97002.72;5121362;27;20083;-66
2022/01/04 08:38:03;;;;;;;13.35;7.63;;;;;;;6.86;81.82;97006.75;5115785;27;20031;-67
2022/01/04 08:40:28;;;;;;;15.60;9.52;;;;;;;6.88;81.85;97001.81;5116309;27;20024;-67
2022/01/04 08:42:53;;;;;;;14.48;9.15;;;;;;;6.92;82.00;96999.25;5115572;27;20027;-67
2022/01/04 08:45:21;;;;;;;13.05;8.57;;;;;;;6.97;82.43;96994.50;5114267;28;20062;-66
2022/01/04 08:47:47;;;;;;;16.30;8.43;;;;;;;7.04;82.28;96976.91;5116526;27;20475;-66
2022/01/04 08:50:14;;;;;;;16.60;9.80;;;;;;;7.07;81.89;96985.28;5114707;27;20035;-66
2022/01/04 08:52:40;;;;;;;15.25;9.20;;;;;;;7.10;81.84;96978.41;5116416;27;20039;-66
2022/01/04 08:55:07;;;;;;;16.67;9.73;;;;;;;7.17;81.75;96980.69;5114621;27;20032;-67
2022/01/04 08:57:32;;;;;;;22.67;11.35;;;;;;;7.19;81.62;96978.44;5111301;28;20117;-66
2022/01/04 08:59:58;;;;;;;18.42;10.57;;;;;;;7.23;81.54;96979.44;5112485;28;20115;-67
2022/01/04 09:02:24;;;;;;;21.02;10.82;;;;;;;7.30;81.88;96967.00;5090979;28;20038;-66
2022/01/04 09:04:50;;;;;;;20.23;10.35;;;;;;;7.30;80.99;96968.91;5112333;28;20030;-66
2022/01/04 09:07:16;;;;;;;23.83;13.77;;;;;;;7.31;80.97;96951.44;5112152;27;20084;-68
2022/01/04 09:09:41;;;;;;;25.35;14.23;;;;;;;7.31;81.03;96945.97;5096625;28;20046;-67
2022/01/04 09:12:07;;;;;;;23.88;11.75;;;;;;;7.30;81.38;96942.47;5115003;27;20027;-67
2022/01/04 09:15:28;;;;;;;20.80;9.88;;;;;;;7.34;81.30;96945.34;5095184;28;20031;-65
2022/01/04 09:20:09;;;;;;;15.43;8.45;;;;;;;7.38;81.09;96927.25;5112673;27;20105;-67
2022/01/04 09:22:36;;;;;;;12.65;7.18;;;;;;;7.41;81.34;96921.16;5114439;27;20024;-67
2022/01/04 09:25:03;;;;;;;13.65;7.43;;;;;;;7.41;81.09;96906.72;5114640;27;20027;-67
2022/01/04 09:27:29;;;;;;;18.30;8.98;;;;;;;7.41;80.82;96907.53;5115664;27;20023;-67
2022/01/04 09:29:55;;;;;;;12.65;6.93;;;;;;;7.44;80.86;96885.09;5114071;27;20046;-67
2022/01/04 09:32:21;;;;;;;13.18;7.95;;;;;;;7.50;81.24;96887.69;5112259;28;20043;-66
2022/01/04 09:34:46;;;;;;;12.68;6.80;;;;;;;7.56;81.03;96878.19;5093295;28;20027;-67
2022/01/04 09:37:13;;;;;;;14.90;8.40;;;;;;;7.59;80.62;96870.22;5112747;27;20467;-68
2022/01/04 09:39:39;;;;;;;18.65;9.93;;;;;;;7.64;80.62;96863.78;5110231;28;20477;-66
2022/01/04 09:42:08;;;;;;;17.15;9.30;;;;;;;7.70;81.05;96861.75;5111071;28;20023;-66
2022/01/04 09:44:34;;;;;;;18.13;8.93;;;;;;;7.73;80.23;96861.91;5113195;27;20038;-68
2022/01/04 09:47:02;;;;;;;23.88;11.55;;;;;;;7.78;81.03;96850.03;5110004;27;20031;-65
2022/01/04 09:49:29;;;;;;;27.42;13.02;;;;;;;7.82;80.67;96844.75;5111835;28;20110;-67
2022/01/04 09:51:55;;;;;;;23.77;11.68;;;;;;;7.81;79.97;96848.59;5115505;27;20126;-67
2022/01/04 09:54:24;;;;;;;19.17;10.43;;;;;;;7.79;80.46;96834.47;5093693;28;20076;-66
2022/01/04 09:56:51;;;;;;;20.58;11.32;;;;;;;7.84;80.43;96839.78;5093744;28;20100;-67
2022/01/04 09:59:17;;;;;;;20.08;9.65;;;;;;;7.89;79.86;96837.69;5111865;28;20496;-66
2022/01/04 10:01:45;;;;;;;18.95;9.23;;;;;;;7.92;80.08;96838.19;5114385;27;20376;-67
2022/01/04 10:04:12;;;;;;;21.33;9.18;;;;;;;7.92;79.67;96830.00;5113141;27;20565;-66
2022/01/04 10:06:39;;;;;;;13.27;7.60;;;;;;;7.95;79.69;96826.63;5108519;27;21006;-66
2022/01/04 10:09:11;;;;;;;17.35;7.47;;;;;;;7.96;80.18;96830.97;5110280;28;20023;-69
2022/01/04 10:11:47;;;;;;;9.02;5.70;;;;;;;7.94;79.41;96825.84;5109410;27;20054;-68
2022/01/04 10:14:32;;;;;;;10.68;5.57;;;;;;;7.90;79.06;96819.41;5106272;28;20038;-67
2022/01/04 10:17:07;;;;;;;13.77;6.43;;;;;;;7.90;79.36;96822.13;5103823;27;20126;-67
2022/01/04 10:19:35;;;;;;;12.18;6.03;;;;;;;7.92;79.82;96817.16;5102879;28;20027;-66
2022/01/04 10:22:31;;;;;;;10.75;5.75;;;;;;;7.92;79.23;96808.16;5109148;27;20503;-66
2022/01/04 10:25:03;;;;;;;8.93;5.10;;;;;;;7.94;79.17;96814.91;5106655;27;20078;-66
2022/01/04 10:27:31;;;;;;;11.38;5.65;;;;;;;7.96;79.08;96800.94;5107334;27;20053;-68
2022/01/04 10:30:15;;;;;;;15.63;8.60;;;;;;;7.96;79.06;96806.41;5089911;28;20040;-66
2022/01/04 10:32:44;;;;;;;12.68;7.43;;;;;;;8.01;78.93;96795.31;5103351;27;20024;-67
2022/01/04 10:35:09;;;;;;;16.08;9.70;;;;;;;8.05;79.31;96793.56;5106409;27;20020;-70
2022/01/04 10:37:40;;;;;;;13.43;8.05;;;;;;;8.07;79.50;96783.13;5106697;27;20033;-69
2022/01/04 10:40:08;;;;;;;8.20;4.38;;;;;;;8.10;79.25;96787.94;5107970;27;20035;-65
2022/01/04 10:42:33;;;;;;;10.00;6.30;;;;;;;8.11;79.35;96781.34;5103829;27;20479;-65
2022/01/04 10:44:59;;;;;;;7.88;4.80;;;;;;;8.12;79.49;96793.88;5110065;27;20041;-65
2022/01/04 10:47:27;;;;;;;6.70;4.90;;;;;;;8.14;78.97;96780.72;5090309;27;20031;-65
2022/01/04 10:49:52;;;;;;;6.65;3.60;;;;;;;8.16;79.44;96783.13;5086892;28;20023;-66
2022/01/04 10:52:22;;;;;;;9.27;4.65;;;;;;;8.16;79.63;96781.16;5091310;28;20079;-66
2022/01/04 10:55:11;;;;;;;9.30;4.05;;;;;;;8.15;79.70;96776.03;5110409;27;20108;-66
2022/01/04 10:57:37;;;;;;;8.30;4.63;;;;;;;8.17;79.88;96773.78;5105024;28;20080;-65
2022/01/04 11:00:16;;;;;;;7.28;4.40;;;;;;;8.15;79.56;96765.91;5090541;28;20040;-66
2022/01/04 11:02:42;;;;;;;7.97;4.45;;;;;;;8.12;79.43;96763.84;5107594;28;20027;-66
2022/01/04 11:05:15;;;;;;;5.55;3.25;;;;;;;8.11;79.62;96756.78;5106378;27;20034;-66
2022/01/04 11:08:00;;;;;;;6.75;4.20;;;;;;;8.06;80.24;96759.66;5112288;27;20495;-66
2022/01/04 11:10:28;;;;;;;16.08;6.97;;;;;;;8.03;79.92;96758.38;5088483;27;20580;-65
2022/01/04 11:12:56;;;;;;;20.88;8.88;;;;;;;8.01;80.50;96746.97;5108786;27;20114;-65
2022/01/04 11:15:22;;;;;;;48.95;14.13;;;;;;;7.99;80.57;96751.16;5109756;27;20038;-64
2022/01/04 11:17:49;;;;;;;24.05;9.00;;;;;;;7.99;80.74;96738.28;5108499;28;20035;-66
2022/01/04 11:20:14;;;;;;;28.45;10.23;;;;;;;8.00;80.80;96737.16;5107993;27;20028;-66
2022/01/04 11:22:40;;;;;;;35.72;12.57;;;;;;;8.01;80.33;96744.25;5108569;28;20096;-64
2022/01/04 11:25:07;;;;;;;36.38;12.45;;;;;;;8.04;80.14;96731.88;5108529;27;20097;-65
2022/01/04 11:27:36;;;;;;;14.82;6.18;;;;;;;8.05;80.94;96723.34;5109757;28;20058;-65
2022/01/04 11:30:06;;;;;;;46.70;14.73;;;;;;;8.08;80.51;96721.94;5106546;28;20055;-67
2022/01/04 11:32:34;;;;;;;20.20;8.30;;;;;;;8.11;80.13;96715.00;5108534;28;20081;-65
2022/01/04 11:35:02;;;;;;;76.28;22.17;;;;;;;8.13;80.11;96718.22;5107041;28;20023;-65
2022/01/04 11:37:28;;;;;;;29.10;10.13;;;;;;;8.16;80.24;96714.84;5109713;28;20044;-64
2022/01/04 11:39:54;;;;;;;100.78;29.40;;;;;;;8.16;80.28;96707.44;5090492;28;20047;-65
2022/01/04 11:42:31;;;;;;;44.38;13.60;;;;;;;8.19;80.01;96698.59;5110006;28;20035;-65
2022/01/04 11:44:58;;;;;;;10.38;5.05;;;;;;;8.18;80.02;96699.72;5109377;28;20024;-65